sensor_id;sensor_type;location;lat;lon;timestamp;temperature;humidity
22966;DHT22;11649;48.090;9.754;2022-07-19T00:00:07;17.40;86.30
22966;DHT22;11649;48.090;9.754;2022-07-19T00:02:37;17.30;86.60
22966;DHT22;11649;48.090;9.754;2022-07-19T00:05:05;17.50;85.90
22966;DHT22;11649;48.090;9.754;2022-07-19T00:07:31;17.80;83.10
22966;DHT22;11649;48.090;9.754;2022-07-19T00:09:58;17.90;82.30
22966;DHT22;11649;48.090;9.754;2022-07-19T00:12:25;17.90;81.80
22966;DHT22;11649;48.090;9.754;2022-07-19T00:14:52;17.60;83.00
22966;DHT22;11649;48.090;9.754;2022-07-19T00:17:19;17.20;83.40
22966;DHT22;11649;48.090;9.754;2022-07-19T00:19:46;17.20;85.30
22966;DHT22;11649;48.090;9.754;2022-07-19T00:22:13;17.20;86.20
22966;DHT22;11649;48.090;9.754;2022-07-19T00:24:40;16.90;87.60
22966;DHT22;11649;48.090;9.754;2022-07-19T00:27:07;16.80;87.80
22966;DHT22;11649;48.090;9.754;2022-07-19T00:29:34;17.00;87.20
22966;DHT22;11649;48.090;9.754;2022-07-19T00:32:01;17.40;86.60
22966;DHT22;11649;48.090;9.754;2022-07-19T00:34:27;17.40;85.80
22966;DHT22;11649;48.090;9.754;2022-07-19T00:36:54;17.10;85.70
22966;DHT22;11649;48.090;9.754;2022-07-19T00:39:21;17.10;85.90
22966;DHT22;11649;48.090;9.754;2022-07-19T00:41:48;17.00;86.40
22966;DHT22;11649;48.090;9.754;2022-07-19T00:44:16;17.70;86.90
22966;DHT22;11649;48.090;9.754;2022-07-19T00:46:43;17.50;87.70
22966;DHT22;11649;48.090;9.754;2022-07-19T00:49:10;17.30;87.40
22966;DHT22;11649;48.090;9.754;2022-07-19T00:51:38;17.10;86.70
22966;DHT22;11649;48.090;9.754;2022-07-19T00:54:09;17.90;86.20
22966;DHT22;11649;48.090;9.754;2022-07-19T00:56:38;17.80;86.10
22966;DHT22;11649;48.090;9.754;2022-07-19T00:59:05;17.40;85.50
22966;DHT22;11649;48.090;9.754;2022-07-19T01:01:32;17.70;86.10
22966;DHT22;11649;48.090;9.754;2022-07-19T01:03:59;17.70;84.90
22966;DHT22;11649;48.090;9.754;2022-07-19T01:06:26;17.30;84.30
22966;DHT22;11649;48.090;9.754;2022-07-19T01:08:53;17.20;83.40
22966;DHT22;11649;48.090;9.754;2022-07-19T01:11:20;17.10;84.20
22966;DHT22;11649;48.090;9.754;2022-07-19T01:13:47;17.20;85.50
22966;DHT22;11649;48.090;9.754;2022-07-19T01:16:16;17.20;85.10
22966;DHT22;11649;48.090;9.754;2022-07-19T01:18:43;17.20;84.50
22966;DHT22;11649;48.090;9.754;2022-07-19T01:21:24;17.30;84.60
22966;DHT22;11649;48.090;9.754;2022-07-19T01:23:52;17.20;84.50
22966;DHT22;11649;48.090;9.754;2022-07-19T01:26:19;17.30;84.00
22966;DHT22;11649;48.090;9.754;2022-07-19T01:28:46;17.40;81.90
22966;DHT22;11649;48.090;9.754;2022-07-19T01:31:13;17.80;78.50
22966;DHT22;11649;48.090;9.754;2022-07-19T01:33:45;17.80;78.30
22966;DHT22;11649;48.090;9.754;2022-07-19T01:36:12;17.90;78.10
22966;DHT22;11649;48.090;9.754;2022-07-19T01:38:39;17.80;78.90
22966;DHT22;11649;48.090;9.754;2022-07-19T01:41:06;17.80;79.10
22966;DHT22;11649;48.090;9.754;2022-07-19T01:43:34;17.70;80.00
22966;DHT22;11649;48.090;9.754;2022-07-19T01:46:01;18.60;80.70
22966;DHT22;11649;48.090;9.754;2022-07-19T01:48:28;17.80;80.40
22966;DHT22;11649;48.090;9.754;2022-07-19T01:50:55;17.70;80.10
22966;DHT22;11649;48.090;9.754;2022-07-19T01:53:22;17.80;80.50
22966;DHT22;11649;48.090;9.754;2022-07-19T01:55:49;17.70;79.40
22966;DHT22;11649;48.090;9.754;2022-07-19T01:58:16;17.40;79.60
22966;DHT22;11649;48.090;9.754;2022-07-19T02:00:42;17.80;81.50
22966;DHT22;11649;48.090;9.754;2022-07-19T02:03:09;17.10;83.20
22966;DHT22;11649;48.090;9.754;2022-07-19T02:05:36;17.60;82.60
22966;DHT22;11649;48.090;9.754;2022-07-19T02:08:03;17.30;80.40
22966;DHT22;11649;48.090;9.754;2022-07-19T02:10:30;17.30;79.90
22966;DHT22;11649;48.090;9.754;2022-07-19T02:12:57;17.40;79.10
22966;DHT22;11649;48.090;9.754;2022-07-19T02:15:24;17.50;79.40
22966;DHT22;11649;48.090;9.754;2022-07-19T02:17:51;17.50;79.20
22966;DHT22;11649;48.090;9.754;2022-07-19T02:20:18;17.40;81.20
22966;DHT22;11649;48.090;9.754;2022-07-19T02:22:45;17.30;82.30
22966;DHT22;11649;48.090;9.754;2022-07-19T02:25:13;16.90;81.60
22966;DHT22;11649;48.090;9.754;2022-07-19T02:27:40;16.80;82.90
22966;DHT22;11649;48.090;9.754;2022-07-19T02:30:08;17.40;84.70
22966;DHT22;11649;48.090;9.754;2022-07-19T02:32:35;16.40;84.80
22966;DHT22;11649;48.090;9.754;2022-07-19T02:35:02;16.40;85.70
22966;DHT22;11649;48.090;9.754;2022-07-19T02:37:29;16.50;85.30
22966;DHT22;11649;48.090;9.754;2022-07-19T02:39:55;16.50;85.10
22966;DHT22;11649;48.090;9.754;2022-07-19T02:42:22;16.50;85.10
22966;DHT22;11649;48.090;9.754;2022-07-19T02:44:49;16.80;85.30
22966;DHT22;11649;48.090;9.754;2022-07-19T02:47:16;16.30;85.50
22966;DHT22;11649;48.090;9.754;2022-07-19T02:49:42;16.20;85.60
22966;DHT22;11649;48.090;9.754;2022-07-19T02:52:09;16.30;86.00
22966;DHT22;11649;48.090;9.754;2022-07-19T02:54:36;16.20;85.50
22966;DHT22;11649;48.090;9.754;2022-07-19T02:57:03;16.90;86.30
22966;DHT22;11649;48.090;9.754;2022-07-19T02:59:30;16.30;86.30
22966;DHT22;11649;48.090;9.754;2022-07-19T03:01:57;16.70;87.30
22966;DHT22;11649;48.090;9.754;2022-07-19T03:04:23;16.20;88.30
22966;DHT22;11649;48.090;9.754;2022-07-19T03:06:50;16.90;89.50
22966;DHT22;11649;48.090;9.754;2022-07-19T03:09:17;16.10;89.40
22966;DHT22;11649;48.090;9.754;2022-07-19T03:11:44;15.60;89.40
22966;DHT22;11649;48.090;9.754;2022-07-19T03:14:10;15.80;89.60
22966;DHT22;11649;48.090;9.754;2022-07-19T03:16:37;15.80;88.90
22966;DHT22;11649;48.090;9.754;2022-07-19T03:19:04;15.40;89.30
22966;DHT22;11649;48.090;9.754;2022-07-19T03:21:31;15.40;90.00
22966;DHT22;11649;48.090;9.754;2022-07-19T03:24:00;15.60;90.10
22966;DHT22;11649;48.090;9.754;2022-07-19T03:26:26;16.20;90.00
22966;DHT22;11649;48.090;9.754;2022-07-19T03:28:53;16.20;90.60
22966;DHT22;11649;48.090;9.754;2022-07-19T03:31:23;16.20;90.30
22966;DHT22;11649;48.090;9.754;2022-07-19T03:33:50;16.00;90.00
22966;DHT22;11649;48.090;9.754;2022-07-19T03:36:17;15.80;88.50
22966;DHT22;11649;48.090;9.754;2022-07-19T03:38:44;15.60;88.30
22966;DHT22;11649;48.090;9.754;2022-07-19T03:41:10;16.00;89.60
22966;DHT22;11649;48.090;9.754;2022-07-19T03:43:38;15.80;89.60
22966;DHT22;11649;48.090;9.754;2022-07-19T03:46:05;15.60;89.60
22966;DHT22;11649;48.090;9.754;2022-07-19T03:48:32;16.20;89.20
22966;DHT22;11649;48.090;9.754;2022-07-19T03:50:59;16.50;90.10
22966;DHT22;11649;48.090;9.754;2022-07-19T03:53:25;15.50;89.40
22966;DHT22;11649;48.090;9.754;2022-07-19T03:55:52;15.90;89.60
22966;DHT22;11649;48.090;9.754;2022-07-19T03:58:19;15.60;90.00
22966;DHT22;11649;48.090;9.754;2022-07-19T04:00:46;15.90;90.30
22966;DHT22;11649;48.090;9.754;2022-07-19T04:03:13;16.00;90.60
22966;DHT22;11649;48.090;9.754;2022-07-19T04:05:40;16.00;90.40
22966;DHT22;11649;48.090;9.754;2022-07-19T04:08:07;15.60;90.00
22966;DHT22;11649;48.090;9.754;2022-07-19T04:10:33;15.60;89.10
22966;DHT22;11649;48.090;9.754;2022-07-19T04:13:00;15.50;89.10
22966;DHT22;11649;48.090;9.754;2022-07-19T04:15:27;15.50;90.00
22966;DHT22;11649;48.090;9.754;2022-07-19T04:17:54;15.50;90.50
22966;DHT22;11649;48.090;9.754;2022-07-19T04:20:21;15.50;90.90
22966;DHT22;11649;48.090;9.754;2022-07-19T04:22:47;16.00;91.10
22966;DHT22;11649;48.090;9.754;2022-07-19T04:25:14;15.50;91.20
22966;DHT22;11649;48.090;9.754;2022-07-19T04:27:42;16.20;91.50
22966;DHT22;11649;48.090;9.754;2022-07-19T04:30:10;16.00;91.50
22966;DHT22;11649;48.090;9.754;2022-07-19T04:32:37;15.80;91.60
22966;DHT22;11649;48.090;9.754;2022-07-19T04:35:04;16.20;91.70
22966;DHT22;11649;48.090;9.754;2022-07-19T04:37:31;15.90;91.80
22966;DHT22;11649;48.090;9.754;2022-07-19T04:39:58;16.40;92.30
22966;DHT22;11649;48.090;9.754;2022-07-19T04:42:25;16.20;92.40
22966;DHT22;11649;48.090;9.754;2022-07-19T04:44:52;16.60;92.40
22966;DHT22;11649;48.090;9.754;2022-07-19T04:47:19;16.70;92.60
22966;DHT22;11649;48.090;9.754;2022-07-19T04:49:46;16.40;92.50
22966;DHT22;11649;48.090;9.754;2022-07-19T04:52:12;16.60;92.80
22966;DHT22;11649;48.090;9.754;2022-07-19T04:54:39;16.70;93.20
22966;DHT22;11649;48.090;9.754;2022-07-19T04:57:06;16.50;93.20
22966;DHT22;11649;48.090;9.754;2022-07-19T04:59:33;16.90;91.90
22966;DHT22;11649;48.090;9.754;2022-07-19T05:02:00;17.20;90.80
22966;DHT22;11649;48.090;9.754;2022-07-19T05:04:27;16.80;90.40
22966;DHT22;11649;48.090;9.754;2022-07-19T05:06:53;17.20;90.30
22966;DHT22;11649;48.090;9.754;2022-07-19T05:09:28;17.10;90.00
22966;DHT22;11649;48.090;9.754;2022-07-19T05:11:55;17.70;90.00
22966;DHT22;11649;48.090;9.754;2022-07-19T05:14:23;17.80;90.20
22966;DHT22;11649;48.090;9.754;2022-07-19T05:16:50;17.50;90.00
22966;DHT22;11649;48.090;9.754;2022-07-19T05:19:17;17.60;89.70
22966;DHT22;11649;48.090;9.754;2022-07-19T05:21:44;18.10;89.80
22966;DHT22;11649;48.090;9.754;2022-07-19T05:24:11;17.70;88.50
22966;DHT22;11649;48.090;9.754;2022-07-19T05:26:37;18.20;88.30
22966;DHT22;11649;48.090;9.754;2022-07-19T05:29:04;17.90;86.60
22966;DHT22;11649;48.090;9.754;2022-07-19T05:31:31;18.00;86.30
22966;DHT22;11649;48.090;9.754;2022-07-19T05:33:58;18.00;85.70
22966;DHT22;11649;48.090;9.754;2022-07-19T05:36:25;18.10;85.30
22966;DHT22;11649;48.090;9.754;2022-07-19T05:38:52;18.30;85.40
22966;DHT22;11649;48.090;9.754;2022-07-19T05:41:19;18.20;84.80
22966;DHT22;11649;48.090;9.754;2022-07-19T05:43:51;18.40;84.70
22966;DHT22;11649;48.090;9.754;2022-07-19T05:46:19;18.50;83.30
22966;DHT22;11649;48.090;9.754;2022-07-19T05:48:46;18.50;83.30
22966;DHT22;11649;48.090;9.754;2022-07-19T05:51:13;18.60;83.20
22966;DHT22;11649;48.090;9.754;2022-07-19T05:53:40;18.80;82.40
22966;DHT22;11649;48.090;9.754;2022-07-19T05:56:08;18.90;81.50
22966;DHT22;11649;48.090;9.754;2022-07-19T05:58:35;19.00;80.80
22966;DHT22;11649;48.090;9.754;2022-07-19T06:01:03;19.00;77.20
22966;DHT22;11649;48.090;9.754;2022-07-19T06:03:47;19.20;77.30
22966;DHT22;11649;48.090;9.754;2022-07-19T06:06:21;19.20;75.70
22966;DHT22;11649;48.090;9.754;2022-07-19T06:08:49;19.30;75.90
22966;DHT22;11649;48.090;9.754;2022-07-19T06:11:16;19.50;74.90
22966;DHT22;11649;48.090;9.754;2022-07-19T06:13:46;19.60;75.30
22966;DHT22;11649;48.090;9.754;2022-07-19T06:16:13;19.60;74.70
22966;DHT22;11649;48.090;9.754;2022-07-19T06:18:40;19.80;73.70
22966;DHT22;11649;48.090;9.754;2022-07-19T06:21:10;19.80;71.20
22966;DHT22;11649;48.090;9.754;2022-07-19T06:23:38;20.00;72.10
22966;DHT22;11649;48.090;9.754;2022-07-19T06:26:06;20.00;71.00
22966;DHT22;11649;48.090;9.754;2022-07-19T06:28:33;20.10;70.40
22966;DHT22;11649;48.090;9.754;2022-07-19T06:31:14;20.20;70.30
22966;DHT22;11649;48.090;9.754;2022-07-19T06:33:42;20.30;70.20
22966;DHT22;11649;48.090;9.754;2022-07-19T06:36:10;20.50;69.70
22966;DHT22;11649;48.090;9.754;2022-07-19T06:38:37;20.50;69.50
22966;DHT22;11649;48.090;9.754;2022-07-19T06:41:04;20.70;69.20
22966;DHT22;11649;48.090;9.754;2022-07-19T06:43:31;20.70;68.00
22966;DHT22;11649;48.090;9.754;2022-07-19T06:45:58;20.80;70.10
22966;DHT22;11649;48.090;9.754;2022-07-19T06:48:25;20.90;68.30
22966;DHT22;11649;48.090;9.754;2022-07-19T06:50:52;20.90;68.30
22966;DHT22;11649;48.090;9.754;2022-07-19T06:53:19;21.00;68.00
22966;DHT22;11649;48.090;9.754;2022-07-19T06:55:47;21.10;67.90
22966;DHT22;11649;48.090;9.754;2022-07-19T06:58:13;21.20;68.30
22966;DHT22;11649;48.090;9.754;2022-07-19T07:00:40;21.20;67.00
22966;DHT22;11649;48.090;9.754;2022-07-19T07:03:07;21.30;67.60
22966;DHT22;11649;48.090;9.754;2022-07-19T07:05:35;21.40;68.00
22966;DHT22;11649;48.090;9.754;2022-07-19T07:08:02;21.60;68.10
22966;DHT22;11649;48.090;9.754;2022-07-19T07:10:29;21.60;67.40
22966;DHT22;11649;48.090;9.754;2022-07-19T07:12:56;21.70;68.00
22966;DHT22;11649;48.090;9.754;2022-07-19T07:15:22;21.80;67.50
22966;DHT22;11649;48.090;9.754;2022-07-19T07:17:49;21.90;68.10
22966;DHT22;11649;48.090;9.754;2022-07-19T07:20:16;22.00;67.40
22966;DHT22;11649;48.090;9.754;2022-07-19T07:22:43;22.00;67.70
22966;DHT22;11649;48.090;9.754;2022-07-19T07:25:10;22.00;67.00
22966;DHT22;11649;48.090;9.754;2022-07-19T07:27:37;22.20;67.20
22966;DHT22;11649;48.090;9.754;2022-07-19T07:30:05;22.30;66.90
22966;DHT22;11649;48.090;9.754;2022-07-19T07:32:32;22.40;65.50
22966;DHT22;11649;48.090;9.754;2022-07-19T07:34:59;22.50;66.70
22966;DHT22;11649;48.090;9.754;2022-07-19T07:37:26;22.60;66.50
22966;DHT22;11649;48.090;9.754;2022-07-19T07:39:53;22.70;65.20
22966;DHT22;11649;48.090;9.754;2022-07-19T07:42:20;22.90;62.80
22966;DHT22;11649;48.090;9.754;2022-07-19T07:44:47;23.10;63.60
22966;DHT22;11649;48.090;9.754;2022-07-19T07:47:14;23.20;64.20
22966;DHT22;11649;48.090;9.754;2022-07-19T07:49:41;23.40;61.50
22966;DHT22;11649;48.090;9.754;2022-07-19T07:52:07;23.50;60.50
22966;DHT22;11649;48.090;9.754;2022-07-19T07:54:35;23.60;59.10
22966;DHT22;11649;48.090;9.754;2022-07-19T07:57:07;23.70;58.90
22966;DHT22;11649;48.090;9.754;2022-07-19T07:59:35;23.80;58.60
22966;DHT22;11649;48.090;9.754;2022-07-19T08:02:02;23.80;57.50
22966;DHT22;11649;48.090;9.754;2022-07-19T08:04:29;23.90;59.50
22966;DHT22;11649;48.090;9.754;2022-07-19T08:06:56;24.00;58.30
22966;DHT22;11649;48.090;9.754;2022-07-19T08:09:22;24.10;57.40
22966;DHT22;11649;48.090;9.754;2022-07-19T08:11:49;24.20;59.40
22966;DHT22;11649;48.090;9.754;2022-07-19T08:14:16;24.30;59.20
22966;DHT22;11649;48.090;9.754;2022-07-19T08:16:43;24.50;59.20
22966;DHT22;11649;48.090;9.754;2022-07-19T08:19:10;24.60;58.50
22966;DHT22;11649;48.090;9.754;2022-07-19T08:21:37;24.70;57.30
22966;DHT22;11649;48.090;9.754;2022-07-19T08:24:05;24.80;57.30
22966;DHT22;11649;48.090;9.754;2022-07-19T08:26:38;24.80;56.20
22966;DHT22;11649;48.090;9.754;2022-07-19T08:29:05;24.90;55.30
22966;DHT22;11649;48.090;9.754;2022-07-19T08:31:32;25.00;56.10
22966;DHT22;11649;48.090;9.754;2022-07-19T08:33:59;25.00;57.10
22966;DHT22;11649;48.090;9.754;2022-07-19T08:36:26;25.10;55.70
22966;DHT22;11649;48.090;9.754;2022-07-19T08:38:53;25.20;55.90
22966;DHT22;11649;48.090;9.754;2022-07-19T08:41:20;25.30;56.90
22966;DHT22;11649;48.090;9.754;2022-07-19T08:43:51;25.30;52.80
22966;DHT22;11649;48.090;9.754;2022-07-19T08:46:21;25.50;54.60
22966;DHT22;11649;48.090;9.754;2022-07-19T08:48:49;25.60;51.20
22966;DHT22;11649;48.090;9.754;2022-07-19T08:51:18;25.70;50.50
22966;DHT22;11649;48.090;9.754;2022-07-19T08:53:46;25.90;47.60
22966;DHT22;11649;48.090;9.754;2022-07-19T08:56:14;26.00;46.70
22966;DHT22;11649;48.090;9.754;2022-07-19T08:58:59;26.00;45.40
22966;DHT22;11649;48.090;9.754;2022-07-19T09:01:26;26.00;46.90
22966;DHT22;11649;48.090;9.754;2022-07-19T09:04:13;26.20;47.80
22966;DHT22;11649;48.090;9.754;2022-07-19T09:06:52;26.30;48.40
22966;DHT22;11649;48.090;9.754;2022-07-19T09:09:33;26.30;46.10
22966;DHT22;11649;48.090;9.754;2022-07-19T09:12:03;26.40;45.30
22966;DHT22;11649;48.090;9.754;2022-07-19T09:14:33;26.50;46.50
22966;DHT22;11649;48.090;9.754;2022-07-19T09:17:04;26.60;45.50
22966;DHT22;11649;48.090;9.754;2022-07-19T09:19:40;26.90;43.60
22966;DHT22;11649;48.090;9.754;2022-07-19T09:22:10;26.90;45.10
22966;DHT22;11649;48.090;9.754;2022-07-19T09:24:39;26.90;44.00
22966;DHT22;11649;48.090;9.754;2022-07-19T09:27:12;27.00;45.20
22966;DHT22;11649;48.090;9.754;2022-07-19T09:29:41;27.00;45.40
22966;DHT22;11649;48.090;9.754;2022-07-19T09:32:17;27.00;45.00
22966;DHT22;11649;48.090;9.754;2022-07-19T09:34:57;27.10;43.70
22966;DHT22;11649;48.090;9.754;2022-07-19T09:37:29;27.10;45.30
22966;DHT22;11649;48.090;9.754;2022-07-19T09:40:03;27.10;44.90
22966;DHT22;11649;48.090;9.754;2022-07-19T09:45:17;27.40;43.50
22966;DHT22;11649;48.090;9.754;2022-07-19T09:47:47;27.40;43.20
22966;DHT22;11649;48.090;9.754;2022-07-19T09:50:17;27.60;43.30
22966;DHT22;11649;48.090;9.754;2022-07-19T09:52:46;27.50;44.40
22966;DHT22;11649;48.090;9.754;2022-07-19T09:55:15;27.60;44.70
22966;DHT22;11649;48.090;9.754;2022-07-19T09:57:47;27.50;45.20
22966;DHT22;11649;48.090;9.754;2022-07-19T10:00:17;27.50;45.00
22966;DHT22;11649;48.090;9.754;2022-07-19T10:02:53;27.70;41.00
22966;DHT22;11649;48.090;9.754;2022-07-19T10:05:22;27.80;40.30
22966;DHT22;11649;48.090;9.754;2022-07-19T10:07:48;27.80;41.90
22966;DHT22;11649;48.090;9.754;2022-07-19T10:10:17;27.90;40.50
22966;DHT22;11649;48.090;9.754;2022-07-19T10:12:45;27.90;39.50
22966;DHT22;11649;48.090;9.754;2022-07-19T10:15:14;27.90;41.00
22966;DHT22;11649;48.090;9.754;2022-07-19T10:18:09;27.90;42.30
22966;DHT22;11649;48.090;9.754;2022-07-19T10:20:38;28.00;42.80
22966;DHT22;11649;48.090;9.754;2022-07-19T10:23:06;28.00;41.90
22966;DHT22;11649;48.090;9.754;2022-07-19T10:25:44;28.10;44.10
22966;DHT22;11649;48.090;9.754;2022-07-19T10:31:30;28.50;42.20
22966;DHT22;11649;48.090;9.754;2022-07-19T10:34:22;28.50;39.10
22966;DHT22;11649;48.090;9.754;2022-07-19T10:36:47;28.60;38.50
22966;DHT22;11649;48.090;9.754;2022-07-19T10:42:10;28.70;39.00
22966;DHT22;11649;48.090;9.754;2022-07-19T10:47:56;28.60;39.00
22966;DHT22;11649;48.090;9.754;2022-07-19T10:50:19;28.60;40.30
22966;DHT22;11649;48.090;9.754;2022-07-19T10:52:48;28.80;40.00
22966;DHT22;11649;48.090;9.754;2022-07-19T10:57:52;28.90;39.30
22966;DHT22;11649;48.090;9.754;2022-07-19T11:02:53;29.20;38.30
22966;DHT22;11649;48.090;9.754;2022-07-19T11:05:52;29.10;39.10
22966;DHT22;11649;48.090;9.754;2022-07-19T11:08:39;29.20;37.30
22966;DHT22;11649;48.090;9.754;2022-07-19T11:11:14;29.20;38.30
22966;DHT22;11649;48.090;9.754;2022-07-19T11:13:49;29.20;37.60
22966;DHT22;11649;48.090;9.754;2022-07-19T11:16:16;29.20;39.30
22966;DHT22;11649;48.090;9.754;2022-07-19T11:18:44;29.20;39.00
22966;DHT22;11649;48.090;9.754;2022-07-19T11:21:14;29.30;36.60
22966;DHT22;11649;48.090;9.754;2022-07-19T11:23:42;29.30;38.70
22966;DHT22;11649;48.090;9.754;2022-07-19T11:26:16;29.40;37.50
22966;DHT22;11649;48.090;9.754;2022-07-19T11:28:52;29.50;34.90
22966;DHT22;11649;48.090;9.754;2022-07-19T11:31:22;29.60;35.70
22966;DHT22;11649;48.090;9.754;2022-07-19T11:33:52;29.60;37.10
22966;DHT22;11649;48.090;9.754;2022-07-19T11:36:26;29.60;37.90
22966;DHT22;11649;48.090;9.754;2022-07-19T11:38:56;29.60;36.90
22966;DHT22;11649;48.090;9.754;2022-07-19T11:41:30;29.70;38.40
22966;DHT22;11649;48.090;9.754;2022-07-19T11:44:03;29.80;35.30
22966;DHT22;11649;48.090;9.754;2022-07-19T11:46:33;29.80;35.30
22966;DHT22;11649;48.090;9.754;2022-07-19T11:49:05;29.90;35.70
22966;DHT22;11649;48.090;9.754;2022-07-19T11:51:33;29.90;35.80
22966;DHT22;11649;48.090;9.754;2022-07-19T11:54:02;29.90;34.10
22966;DHT22;11649;48.090;9.754;2022-07-19T11:56:31;30.00;35.60
22966;DHT22;11649;48.090;9.754;2022-07-19T11:58:59;30.00;35.90
22966;DHT22;11649;48.090;9.754;2022-07-19T12:01:38;30.10;35.20
22966;DHT22;11649;48.090;9.754;2022-07-19T12:04:07;30.20;36.60
22966;DHT22;11649;48.090;9.754;2022-07-19T12:06:49;30.20;36.50
22966;DHT22;11649;48.090;9.754;2022-07-19T12:09:19;30.20;35.00
22966;DHT22;11649;48.090;9.754;2022-07-19T12:11:48;30.30;35.40
22966;DHT22;11649;48.090;9.754;2022-07-19T12:14:28;30.30;35.00
22966;DHT22;11649;48.090;9.754;2022-07-19T12:19:43;30.50;34.60
22966;DHT22;11649;48.090;9.754;2022-07-19T12:22:35;30.50;35.00
22966;DHT22;11649;48.090;9.754;2022-07-19T12:25:04;30.50;34.80
22966;DHT22;11649;48.090;9.754;2022-07-19T12:27:31;30.60;34.80
22966;DHT22;11649;48.090;9.754;2022-07-19T12:29:59;30.70;33.70
22966;DHT22;11649;48.090;9.754;2022-07-19T12:32:35;30.60;32.70
22966;DHT22;11649;48.090;9.754;2022-07-19T12:35:07;30.70;34.60
22966;DHT22;11649;48.090;9.754;2022-07-19T12:37:42;30.70;33.60
22966;DHT22;11649;48.090;9.754;2022-07-19T12:45:14;30.90;32.60
22966;DHT22;11649;48.090;9.754;2022-07-19T12:47:41;30.90;33.40
22966;DHT22;11649;48.090;9.754;2022-07-19T12:50:09;30.90;32.60
22966;DHT22;11649;48.090;9.754;2022-07-19T12:52:44;30.90;33.30
22966;DHT22;11649;48.090;9.754;2022-07-19T12:55:11;31.00;32.60
22966;DHT22;11649;48.090;9.754;2022-07-19T12:57:46;31.20;32.90
22966;DHT22;11649;48.090;9.754;2022-07-19T13:00:14;31.40;31.80
22966;DHT22;11649;48.090;9.754;2022-07-19T13:02:41;31.40;31.90
22966;DHT22;11649;48.090;9.754;2022-07-19T13:05:08;31.60;32.50
22966;DHT22;11649;48.090;9.754;2022-07-19T13:07:35;31.80;32.50
22966;DHT22;11649;48.090;9.754;2022-07-19T13:10:02;32.00;30.00
22966;DHT22;11649;48.090;9.754;2022-07-19T13:12:29;32.10;29.70
22966;DHT22;11649;48.090;9.754;2022-07-19T13:14:56;32.30;30.10
22966;DHT22;11649;48.090;9.754;2022-07-19T13:17:23;33.10;29.80
22966;DHT22;11649;48.090;9.754;2022-07-19T13:19:50;34.00;28.80
22966;DHT22;11649;48.090;9.754;2022-07-19T13:22:17;34.20;28.20
22966;DHT22;11649;48.090;9.754;2022-07-19T13:24:44;34.20;28.50
22966;DHT22;11649;48.090;9.754;2022-07-19T13:27:31;34.60;28.20
22966;DHT22;11649;48.090;9.754;2022-07-19T13:29:58;34.90;27.50
22966;DHT22;11649;48.090;9.754;2022-07-19T13:32:25;35.20;27.00
22966;DHT22;11649;48.090;9.754;2022-07-19T13:34:52;35.70;27.90
22966;DHT22;11649;48.090;9.754;2022-07-19T13:37:18;35.50;28.20
22966;DHT22;11649;48.090;9.754;2022-07-19T13:39:45;35.60;26.80
22966;DHT22;11649;48.090;9.754;2022-07-19T13:42:12;35.20;27.50
22966;DHT22;11649;48.090;9.754;2022-07-19T13:44:39;35.20;28.20
22966;DHT22;11649;48.090;9.754;2022-07-19T13:47:06;35.50;28.80
22966;DHT22;11649;48.090;9.754;2022-07-19T13:49:33;35.70;28.40
22966;DHT22;11649;48.090;9.754;2022-07-19T13:52:00;35.50;27.60
22966;DHT22;11649;48.090;9.754;2022-07-19T13:54:26;35.00;26.00
22966;DHT22;11649;48.090;9.754;2022-07-19T13:56:53;35.20;26.30
22966;DHT22;11649;48.090;9.754;2022-07-19T13:59:20;35.80;26.10
22966;DHT22;11649;48.090;9.754;2022-07-19T14:01:47;36.60;25.70
22966;DHT22;11649;48.090;9.754;2022-07-19T14:04:14;36.90;24.40
22966;DHT22;11649;48.090;9.754;2022-07-19T14:06:49;37.00;24.90
22966;DHT22;11649;48.090;9.754;2022-07-19T14:09:17;37.30;23.20
22966;DHT22;11649;48.090;9.754;2022-07-19T14:11:44;37.70;23.50
22966;DHT22;11649;48.090;9.754;2022-07-19T14:14:12;38.50;23.80
22966;DHT22;11649;48.090;9.754;2022-07-19T14:16:40;39.10;24.10
22966;DHT22;11649;48.090;9.754;2022-07-19T14:19:07;39.40;22.40
22966;DHT22;11649;48.090;9.754;2022-07-19T14:21:34;39.70;24.40
22966;DHT22;11649;48.090;9.754;2022-07-19T14:24:02;39.60;22.20
22966;DHT22;11649;48.090;9.754;2022-07-19T14:26:29;39.50;22.20
22966;DHT22;11649;48.090;9.754;2022-07-19T14:28:56;40.20;21.70
22966;DHT22;11649;48.090;9.754;2022-07-19T14:31:23;40.50;20.70
22966;DHT22;11649;48.090;9.754;2022-07-19T14:33:50;40.40;20.80
22966;DHT22;11649;48.090;9.754;2022-07-19T14:36:37;41.00;21.70
22966;DHT22;11649;48.090;9.754;2022-07-19T14:39:03;42.00;20.20
22966;DHT22;11649;48.090;9.754;2022-07-19T14:41:32;41.80;19.50
22966;DHT22;11649;48.090;9.754;2022-07-19T14:43:59;41.80;18.70
22966;DHT22;11649;48.090;9.754;2022-07-19T14:46:26;42.20;18.90
22966;DHT22;11649;48.090;9.754;2022-07-19T14:48:53;41.90;18.10
22966;DHT22;11649;48.090;9.754;2022-07-19T14:51:20;42.00;17.70
22966;DHT22;11649;48.090;9.754;2022-07-19T14:53:47;42.20;17.50
22966;DHT22;11649;48.090;9.754;2022-07-19T14:56:14;42.50;17.50
22966;DHT22;11649;48.090;9.754;2022-07-19T14:58:41;43.10;17.60
22966;DHT22;11649;48.090;9.754;2022-07-19T15:01:08;42.60;17.20
22966;DHT22;11649;48.090;9.754;2022-07-19T15:03:35;42.50;17.30
22966;DHT22;11649;48.090;9.754;2022-07-19T15:06:02;42.40;17.00
22966;DHT22;11649;48.090;9.754;2022-07-19T15:08:29;42.40;17.00
22966;DHT22;11649;48.090;9.754;2022-07-19T15:10:56;42.50;17.40
22966;DHT22;11649;48.090;9.754;2022-07-19T15:13:23;42.70;16.30
22966;DHT22;11649;48.090;9.754;2022-07-19T15:15:49;42.50;17.30
22966;DHT22;11649;48.090;9.754;2022-07-19T15:18:16;42.80;16.60
22966;DHT22;11649;48.090;9.754;2022-07-19T15:20:47;42.70;17.50
22966;DHT22;11649;48.090;9.754;2022-07-19T15:23:14;41.90;16.60
22966;DHT22;11649;48.090;9.754;2022-07-19T15:25:41;41.30;18.30
22966;DHT22;11649;48.090;9.754;2022-07-19T15:28:08;41.30;18.20
22966;DHT22;11649;48.090;9.754;2022-07-19T15:30:34;40.90;18.40
22966;DHT22;11649;48.090;9.754;2022-07-19T15:33:01;40.80;19.00
22966;DHT22;11649;48.090;9.754;2022-07-19T15:35:28;40.20;17.80
22966;DHT22;11649;48.090;9.754;2022-07-19T15:37:55;39.80;18.40
22966;DHT22;11649;48.090;9.754;2022-07-19T15:40:22;39.80;18.70
22966;DHT22;11649;48.090;9.754;2022-07-19T15:42:50;39.90;18.70
22966;DHT22;11649;48.090;9.754;2022-07-19T15:45:19;39.30;18.30
22966;DHT22;11649;48.090;9.754;2022-07-19T15:47:47;38.70;18.90
22966;DHT22;11649;48.090;9.754;2022-07-19T15:50:16;38.10;19.10
22966;DHT22;11649;48.090;9.754;2022-07-19T15:52:44;37.50;19.20
22966;DHT22;11649;48.090;9.754;2022-07-19T15:55:11;37.00;19.40
22966;DHT22;11649;48.090;9.754;2022-07-19T15:57:38;36.70;20.40
22966;DHT22;11649;48.090;9.754;2022-07-19T16:00:07;36.90;20.60
22966;DHT22;11649;48.090;9.754;2022-07-19T16:02:35;37.00;20.50